Weather observations for the past three days for
Shishmaref, Shishmaref Airport
| Date | Time (akdt) | Wind (mph) | Vis. (mi.) | Weather | Sky Cond. | Temperature (ºF) | Relative Humidity | Wind Chill (°F) | Heat Index (°F) | Pressure | Precipitation (in) | ||||||
|---|---|---|---|---|---|---|---|---|---|---|---|---|---|---|---|---|---|
| Air | Dwpt | 6 hour | altimeter (in) | sea level (mb) | 1 hr | 3 hr | 6 hr | ||||||||||
| Max. | Min. | ||||||||||||||||
| 04 | 08:56 | SW 9 | 10.00 | Overcast | OVC007 | 24.1 | 21.9 | 91% | 15 | 30.12 | 1019.9 | ||||||
| 04 | 07:56 | W 13 | 10.00 | Overcast | OVC007 | 25 | 23 | 92% | 14 | 30.11 | 1019.8 | ||||||
| 04 | 06:56 | W 14 | 10.00 | Overcast | OVC005 | 24.1 | 21.9 | 91% | 13 | 30.11 | 1019.7 | ||||||
| 04 | 05:56 | W 15 | 10.00 | Overcast | SCT009 BKN023 OVC048 | 23 | 19.9 | 88% | 11 | 30.11 | 1019.6 | ||||||
| 04 | 04:56 | SW 9 | 9.00 | Light Snow | FEW015 SCT037 BKN048 | 21.9 | 19 | 89% | 13 | 30.11 | 1019.6 | ||||||
| 04 | 03:56 | SW 9 | 10.00 | A Few Clouds | FEW048 | 21 | 19 | 28.9 | 21 | 92% | 11 | 30.1 | 1019.3 | ||||
| 04 | 02:56 | SW 12 | 10.00 | Overcast | OVC042 | 26.1 | 21.9 | 84% | 16 | 30.1 | 1019.2 | ||||||
| 04 | 01:56 | SW 10 | 10.00 | Overcast | OVC042 | 27 | 23 | 85% | 18 | 30.09 | 1019.0 | ||||||
| 04 | 00:56 | SW 12 | 9.00 | Overcast | OVC042 | 28 | 24.1 | 85% | 19 | 30.09 | 1018.9 | ||||||
| 03 | 23:56 | SW 10 | 9.00 | Light Snow | OVC044 | 28 | 24.1 | 85% | 19 | 30.08 | 1018.6 | ||||||
| 03 | 22:56 | SW 8 | 10.00 | Overcast | OVC040 | 28 | 24.1 | 85% | 21 | 30.07 | 1018.4 | ||||||
| 03 | 21:56 | SW 12 | 10.00 | Overcast | OVC028 | 28.9 | 25 | 32 | 28.9 | 85% | 20 | 30.06 | 1018.1 | ||||
| 03 | 20:56 | SW 13 | 10.00 | Overcast | OVC030 | 30.9 | 25 | 79% | 22 | 30.07 | 1018.2 | ||||||
| 03 | 19:56 | SW 14 | 10.00 | Overcast | OVC034 | 30.9 | 25 | 79% | 21 | 30.06 | 1018.1 | ||||||
| 03 | 18:56 | W 15 | 10.00 | Overcast | FEW015 BKN022 OVC028 | 30.9 | 26.1 | 82% | 21 | 30.06 | 1017.9 | ||||||
| 03 | 17:56 | S 17 | 10.00 | Overcast | OVC030 | 32 | 25 | 75% | 22 | 30.06 | 1017.8 | ||||||
| 03 | 16:56 | S 18 | 10.00 | Overcast | OVC028 | 32 | 25 | 75% | 21 | 30.06 | 1018.0 | ||||||
| 03 | 15:56 | SW 16 | 10.00 | Overcast | BKN017 OVC028 | 30.9 | 27 | 30.9 | 27 | 85% | 21 | 30.06 | 1017.9 | ||||
| 03 | 14:56 | SW 20 | 10.00 | Overcast | BKN021 OVC060 | 30.9 | 26.1 | 82% | 20 | 30.06 | 1017.9 | ||||||
| 03 | 13:56 | S 20 | 10.00 | Overcast | OVC017 | 30.9 | 26.1 | 82% | 20 | 30.06 | 1018.1 | ||||||
| 03 | 12:56 | S 14 | 9.00 | Light Snow | OVC015 | 30 | 26.1 | 85% | 20 | 30.06 | 1017.8 | ||||||
| 03 | 11:56 | S 14 | 9.00 | Light Snow | OVC029 | 28.9 | 25 | 85% | 19 | 30.05 | 1017.7 | ||||||
| 03 | 10:56 | S 17 | 10.00 | Overcast | OVC027 | 28 | 24.1 | 85% | 17 | 30.04 | 1017.4 | ||||||
| 03 | 09:56 | S 14 | 10.00 | Overcast | OVC027 | 27 | 23 | 27 | 21 | 85% | 16 | 30.03 | 1016.9 | ||||
| 03 | 08:56 | S 14 | 10.00 | Overcast | OVC023 | 26.1 | 23 | 88% | 15 | 30.02 | 1016.6 | ||||||
| 03 | 07:56 | S 9 | 10.00 | Overcast | OVC023 | 25 | 21.9 | 88% | 16 | 30.01 | 1016.2 | ||||||
| 03 | 06:56 | S 9 | 10.00 | Overcast | OVC027 | 24.1 | 21 | 88% | 15 | 30 | 1016.0 | ||||||
| 03 | 05:56 | SW 15 | 10.00 | Overcast | OVC031 | 23 | 19.9 | 88% | 11 | 29.99 | 1015.7 | ||||||
| 03 | 04:56 | SW 10 | 10.00 | Overcast | OVC031 | 21 | 17.1 | 85% | 11 | 29.98 | 1015.3 | ||||||
| 03 | 03:56 | SW 13 | 10.00 | Overcast | OVC031 | 21.9 | 19 | 23 | 21 | 89% | 11 | 29.97 | 1014.8 | ||||
| 03 | 02:56 | SW 14 | 10.00 | Overcast | FEW026 OVC037 | 21 | 18 | 88% | 9 | 29.95 | 1014.1 | ||||||
| 03 | 01:56 | SW 10 | 10.00 | Overcast | OVC022 | 21.9 | 18 | 85% | 12 | 29.93 | 1013.6 | ||||||
| 03 | 00:56 | W 20 | 10.00 | Overcast | OVC018 | 23 | 19 | 85% | 9 | 29.9 | 1012.6 | ||||||
| 02 | 23:56 | W 15 | 10.00 | Overcast | OVC018 | 21.9 | 18 | 85% | 10 | 29.88 | 1011.8 | ||||||
| 02 | 22:56 | W 18 | 10.00 | Overcast | OVC018 | 21.9 | 18 | 85% | 8 | 29.85 | 1010.9 | ||||||
| 02 | 21:56 | W 18 | 10.00 | Overcast | OVC018 | 21.9 | 18 | 23 | 21.9 | 85% | 8 | 29.83 | 1010.1 | ||||
| 02 | 20:56 | W 20 | 10.00 | Overcast | OVC018 | 21.9 | 18 | 85% | 8 | 29.81 | 1009.6 | ||||||
| 02 | 19:56 | W 23 | 10.00 | Overcast and Breezy | OVC014 | 21.9 | 18 | 85% | 7 | 29.79 | 1008.8 | ||||||
| 02 | 18:56 | W 18 | 10.00 | Overcast | OVC012 | 21.9 | 18 | 85% | 8 | 29.76 | 1008.0 | ||||||
| 02 | 17:56 | W 18 | 10.00 | Overcast | OVC012 | 23 | 19 | 85% | 10 | 29.74 | 1007.2 | ||||||
| 02 | 16:56 | W 21 | 9.00 | Overcast and Breezy | OVC010 | 23 | 19 | 85% | 9 | 29.71 | 1006.2 | ||||||
| 02 | 15:56 | W 21 | 9.00 | Overcast and Breezy | OVC010 | 23 | 19 | 24.1 | 23 | 85% | 9 | 29.69 | 1005.3 | ||||
| 02 | 14:56 | W 22 | 10.00 | Overcast and Breezy | OVC010 | 23 | 19.9 | 88% | 9 | 29.66 | 1004.5 | ||||||
| 02 | 13:56 | W 21 | 9.00 | Overcast and Breezy | OVC010 | 24.1 | 21 | 88% | 10 | 29.63 | 1003.5 | ||||||
| 02 | 12:56 | W 21 | 8.00 | Overcast and Breezy | OVC008 | 24.1 | 21 | 88% | 10 | 29.6 | 1002.4 | ||||||
| 02 | 11:56 | W 21 | 4.00 | Fog/Mist and Breezy | OVC008 | 23 | 21 | 92% | 9 | 29.58 | 1001.6 | ||||||
| 02 | 10:56 | W 21 | 7.00 | Light Snow and Breezy | OVC008 | 24.1 | 21.9 | 91% | 10 | 29.55 | 1000.6 | ||||||
| 02 | 09:56 | W 21 | 2.00 | Light Snow Fog/Mist and Breezy | OVC008 | 24.1 | 21.9 | 28 | 24.1 | 91% | 10 | 29.51 | 999.5 | ||||
| 02 | 08:56 | W 21 | 2.50 | Light Snow Fog/Mist and Breezy | OVC008 | 24.1 | 23 | 96% | 10 | 29.49 | 998.7 | ||||||
| 02 | 07:56 | W 17 | 3.00 | Light Snow Fog/Mist | BKN008 BKN045 OVC050 | 25 | 23 | 92% | 13 | 29.47 | 998.0 | ||||||
| 02 | 06:56 | W 16 | 2.50 | Light Snow Fog/Mist | BKN006 OVC023 | 26.1 | 24.1 | 92% | 14 | 29.45 | 997.2 | ||||||
| 02 | 05:56 | W 14 | 3.00 | Light Snow Fog/Mist | SCT006 OVC035 | 26.1 | 25 | 96% | 15 | 29.42 | 996.4 | ||||||
| 02 | 04:56 | W 15 | 2.00 | Light Snow Fog/Mist | FEW006 BKN015 OVC023 | 27 | 26.1 | 96% | 16 | 29.4 | 995.7 | ||||||
| 02 | 03:56 | W 14 | 4.00 | Light Snow Fog/Mist | BKN006 BKN011 OVC033 | 28 | 27 | 33.1 | 28 | 96% | 18 | 29.39 | 995.1 | ||||
| 02 | 02:56 | W 15 | 5.00 | Light Snow Fog/Mist | BKN004 OVC020 | 28.9 | 28 | 96% | 18 | 29.37 | 994.7 | ||||||
| 02 | 01:56 | W 10 | 6.00 | Light Snow Fog/Mist | BKN004 BKN024 OVC031 | 30.9 | 30 | 96% | 23 | 29.36 | 994.1 | ||||||
| 02 | 00:56 | W 10 | 5.00 | Light Snow Fog/Mist | BKN003 BKN027 OVC046 | 30.9 | 30.9 | 100% | 23 | 29.34 | 993.7 | ||||||
| 01 | 23:56 | W 8 | 2.00 | Light Snow Fog/Mist | BKN003 BKN007 OVC024 | 32 | 30.9 | 96% | 25 | 29.33 | 993.3 | ||||||
| 01 | 22:56 | W 7 | 1.00 | Light Snow Fog/Mist | OVC014 | 33.1 | 30.9 | 92% | 28 | 29.32 | 992.9 | ||||||
| 01 | 21:56 | NW 8 | 10.00 | Light Rain | SCT016 OVC024 | 33.1 | 32 | 36 | 33.1 | 96% | 27 | 29.31 | 992.5 | 0.01 | |||
| 01 | 20:56 | NW 8 | 0.75 | Light Rain Fog/Mist | FEW004 OVC009 | 33.1 | 32 | 96% | 27 | 29.31 | 992.4 | 0.01 | |||||
| 01 | 19:56 | N 5 | 1.50 | Light Rain Fog/Mist | OVC012 | 34 | 32 | 92% | 30 | 29.3 | 992.4 | ||||||
| 01 | 18:56 | N 6 | 0.25 | Light Rain Fog | BKN003 OVC021 | 35.1 | 32 | 89% | 31 | 29.3 | 992.4 | ||||||
| 01 | 17:56 | N 6 | 7.00 | Light Rain | FEW004 SCT010 OVC034 | 36 | 33.1 | 89% | 32 | 29.3 | 992.3 | ||||||
| 01 | 16:56 | NW 6 | 7.00 | Light Rain | BKN004 OVC010 | 36 | 33.1 | 89% | 32 | 29.31 | 992.6 | ||||||
| 01 | 15:56 | Calm | 7.00 | Light Rain | OVC004 | 39 | 36 | 39.9 | 35.1 | 89% | 29.32 | 992.8 | 0.01 | 0.02 | |||
| 01 | 14:56 | E 5 | 5.00 | Light Rain Fog/Mist | FEW009 SCT021 OVC028 | 37.9 | 35.1 | 89% | 35 | 29.32 | 992.9 | ||||||
| 01 | 13:56 | SE 3 | 2.00 | Light Rain Fog/Mist | OVC026 | 37 | 34 | 89% | 29.33 | 993.2 | |||||||
| 01 | 12:56 | E 6 | 6.00 | Light Rain Fog/Mist | OVC002 | 37 | 35.1 | 93% | 33 | 29.33 | 993.4 | 0.01 | 0.01 | ||||
| 01 | 11:56 | NE 3 | 0.50 | Light Snow Fog | OVC002 | 36 | 35.1 | 97% | 29.34 | 993.5 | |||||||
| 01 | 10:56 | NE 6 | 2.50 | Light Snow Fog/Mist | OVC002 | 35.1 | 34 | 96% | 31 | 29.34 | 993.6 | ||||||
| 01 | 09:56 | NE 7 | 2.00 | Light Snow Fog/Mist | BKN002 OVC015 | 33.1 | 32 | 33.1 | 32 | 96% | 28 | 29.35 | 993.9 | 0.01 | 0.01 | ||
| Date | Time (akdt) | Wind (mph) | Vis. (mi.) | Weather | Sky Cond. | Air | Dwpt | Max. | Min. | Relative Humidity | Wind Chill (°F) | Heat Index (°F) | altimeter (in) | sea level (mb) | 1 hr | 3 hr | 6 hr |
| 6 hour | |||||||||||||||||
| Temperature (ºF) | Pressure | Precipitation (in) | |||||||||||||||